createdAt,value
2023-04-08T00:00:41.333Z,7.44
2023-04-08T00:01:42.066Z,7.43
2023-04-08T00:02:41.401Z,7.42
2023-04-08T00:03:42.109Z,7.41
2023-04-08T00:04:42.010Z,7.41
2023-04-08T00:05:41.948Z,7.40
2023-04-08T00:06:41.950Z,7.39
2023-04-08T00:07:41.940Z,7.39
2023-04-08T00:08:41.239Z,7.38
2023-04-08T00:09:41.918Z,7.37
2023-04-08T00:10:41.892Z,7.36
2023-04-08T00:11:41.208Z,7.35
2023-04-08T00:12:42.145Z,7.35
2023-04-08T00:13:41.879Z,7.34
2023-04-08T00:14:41.868Z,7.34
2023-04-08T00:15:41.853Z,7.33
2023-04-08T00:16:41.924Z,7.33
2023-04-08T00:17:41.875Z,7.32
2023-04-08T00:18:41.832Z,7.31
2023-04-08T00:19:41.815Z,7.30
2023-04-08T00:20:41.791Z,7.30
2023-04-08T00:21:41.792Z,7.28
2023-04-08T00:22:41.781Z,7.26
2023-04-08T00:23:42.030Z,7.25
2023-04-08T00:24:41.758Z,7.24
2023-04-08T00:25:41.746Z,7.23
2023-04-08T00:26:41.740Z,7.21
2023-04-08T00:27:41.992Z,7.21
2023-04-08T00:28:41.725Z,7.20
2023-04-08T00:29:41.706Z,7.19
2023-04-08T00:30:41.043Z,7.18
2023-04-08T00:31:41.685Z,7.17
2023-04-08T00:32:41.701Z,7.16
2023-04-08T00:33:41.676Z,7.14
2023-04-08T00:34:41.651Z,7.13
2023-04-08T00:35:41.653Z,7.11
2023-04-08T00:36:41.633Z,7.10
2023-04-08T00:37:41.630Z,7.08
2023-04-08T00:38:41.870Z,7.07
2023-04-08T00:39:41.855Z,7.06
2023-04-08T00:40:41.575Z,7.05
2023-04-08T00:41:40.894Z,7.03
2023-04-08T00:42:41.570Z,7.03
2023-04-08T00:43:41.584Z,7.01
2023-04-08T00:44:41.551Z,7.00
2023-04-08T00:45:41.525Z,6.99
2023-04-08T00:46:41.646Z,6.98
2023-04-08T00:47:40.873Z,6.97
2023-04-08T00:48:41.520Z,6.96
2023-04-08T00:49:42.766Z,6.95
2023-04-08T00:50:41.467Z,6.95
2023-04-08T00:51:41.481Z,6.95
2023-04-08T00:52:41.467Z,6.93
2023-04-08T00:53:41.456Z,6.92
2023-04-08T00:54:41.437Z,6.92
2023-04-08T00:55:41.434Z,6.91
2023-04-08T00:56:41.425Z,6.91
2023-04-08T00:57:41.417Z,6.90
2023-04-08T00:58:41.406Z,6.89
2023-04-08T00:59:41.403Z,6.88
2023-04-08T01:00:41.386Z,6.87
2023-04-08T01:01:40.804Z,6.85
2023-04-08T01:02:41.505Z,6.84
2023-04-08T01:03:41.460Z,6.83
2023-04-08T01:04:41.323Z,6.83
2023-04-08T01:05:40.645Z,6.82
2023-04-08T01:06:40.648Z,6.81
2023-04-08T01:07:41.324Z,6.81
2023-04-08T01:08:41.297Z,6.81
2023-04-08T01:09:40.677Z,6.79
2023-04-08T01:10:40.575Z,6.77
2023-04-08T01:11:40.587Z,6.76
2023-04-08T01:12:40.558Z,6.75
2023-04-08T01:13:40.557Z,6.74
2023-04-08T01:14:41.218Z,6.73
2023-04-08T01:15:42.493Z,6.73
2023-04-08T01:16:41.460Z,6.72
2023-04-08T01:17:40.522Z,6.71
2023-04-08T01:18:41.196Z,6.70
2023-04-08T01:19:40.556Z,6.69
2023-04-08T01:20:41.169Z,6.68
2023-04-08T01:21:41.419Z,6.67
2023-04-08T01:22:41.152Z,6.67
2023-04-08T01:23:40.467Z,6.65
2023-04-08T01:24:41.112Z,6.64
2023-04-08T01:25:40.435Z,6.63
2023-04-08T01:26:41.113Z,6.62
2023-04-08T01:27:41.100Z,6.60
2023-04-08T01:28:40.407Z,6.60
2023-04-08T01:29:40.493Z,6.59
2023-04-08T01:30:41.089Z,6.57
2023-04-08T01:31:41.169Z,6.56
2023-04-08T01:32:41.084Z,6.53
2023-04-08T01:33:41.037Z,6.52
2023-04-08T01:34:41.006Z,6.50
2023-04-08T01:35:41.080Z,6.47
2023-04-08T01:36:41.003Z,6.45
2023-04-08T01:37:40.996Z,6.41
2023-04-08T01:38:40.999Z,6.37
2023-04-08T01:39:40.964Z,6.35
2023-04-08T01:40:40.299Z,6.31
2023-04-08T01:41:40.288Z,6.28
2023-04-08T01:42:40.947Z,6.24
2023-04-08T01:43:40.935Z,6.19
2023-04-08T01:44:40.910Z,6.16
2023-04-08T01:45:40.913Z,6.12
2023-04-08T01:46:40.918Z,6.09
2023-04-08T01:47:40.950Z,6.06
2023-04-08T01:48:40.852Z,6.03
2023-04-08T01:49:40.852Z,6.00
2023-04-08T01:50:40.865Z,5.99
2023-04-08T01:51:40.163Z,5.98
2023-04-08T01:52:40.838Z,5.95
2023-04-08T01:53:40.158Z,5.94
2023-04-08T01:54:41.084Z,5.94
2023-04-08T01:55:40.808Z,5.93
2023-04-08T01:56:40.797Z,5.93
2023-04-08T01:57:40.098Z,5.93
2023-04-08T01:58:40.109Z,5.93
2023-04-08T01:59:40.775Z,5.94
2023-04-08T02:00:40.083Z,5.94
2023-04-08T02:01:40.117Z,5.95
2023-04-08T02:02:42.182Z,5.96
2023-04-08T02:03:40.810Z,5.97
2023-04-08T02:04:40.270Z,5.98
2023-04-08T02:05:41.963Z,6.00
2023-04-08T02:06:40.697Z,6.01
2023-04-08T02:07:40.686Z,6.03
2023-04-08T02:08:40.655Z,6.05
2023-04-08T02:09:40.659Z,6.07
2023-04-08T02:10:39.957Z,6.09
2023-04-08T02:11:40.635Z,6.10
2023-04-08T02:12:40.630Z,6.12
2023-04-08T02:13:40.616Z,6.14
2023-04-08T02:14:40.584Z,6.16
2023-04-08T02:15:39.909Z,6.18
2023-04-08T02:16:40.702Z,6.20
2023-04-08T02:17:40.582Z,6.22
2023-04-08T02:18:39.873Z,6.23
2023-04-08T02:19:40.532Z,6.24
2023-04-08T02:20:39.878Z,6.24
2023-04-08T02:21:39.856Z,6.26
2023-04-08T02:22:40.514Z,6.25
2023-04-08T02:23:40.518Z,6.26
2023-04-08T02:24:40.478Z,6.26
2023-04-08T02:25:40.495Z,6.25
2023-04-08T02:26:39.791Z,6.24
2023-04-08T02:27:40.467Z,6.23
2023-04-08T02:28:39.790Z,6.20
2023-04-08T02:29:39.768Z,6.18
2023-04-08T02:30:40.440Z,6.16
2023-04-08T02:31:39.761Z,6.14
2023-04-08T02:32:40.758Z,6.11
2023-04-08T02:33:39.730Z,6.08
2023-04-08T02:34:41.173Z,6.07
2023-04-08T02:35:40.440Z,6.04
2023-04-08T02:36:40.370Z,6.02
2023-04-08T02:37:40.358Z,5.99
2023-04-08T02:38:39.678Z,5.98
2023-04-08T02:39:39.693Z,5.95
2023-04-08T02:40:40.325Z,5.94
2023-04-08T02:41:40.316Z,5.91
2023-04-08T02:42:40.310Z,5.89
2023-04-08T02:43:39.607Z,5.87
2023-04-08T02:44:40.270Z,5.86
2023-04-08T02:45:40.312Z,5.86
2023-04-08T02:46:40.258Z,5.84
2023-04-08T02:47:40.334Z,5.82
2023-04-08T02:48:39.575Z,5.82
2023-04-08T02:49:40.225Z,5.81
2023-04-08T02:50:39.538Z,5.80
2023-04-08T02:51:39.526Z,5.80
2023-04-08T02:52:40.199Z,5.78
2023-04-08T02:53:40.181Z,5.77
2023-04-08T02:54:39.501Z,5.77
2023-04-08T02:55:40.195Z,5.76
2023-04-08T02:56:40.151Z,5.76
2023-04-08T02:57:40.138Z,5.77
2023-04-08T02:58:40.128Z,5.77
2023-04-08T02:59:40.098Z,5.77
2023-04-08T03:00:39.467Z,5.78
2023-04-08T03:01:40.199Z,5.78
2023-04-08T03:02:40.277Z,5.80
2023-04-08T03:03:40.211Z,5.80
2023-04-08T03:04:40.061Z,5.82
2023-04-08T03:05:40.076Z,5.85
2023-04-08T03:06:40.051Z,5.85
2023-04-08T03:07:39.369Z,5.87
2023-04-08T03:08:39.342Z,5.90
2023-04-08T03:09:39.996Z,5.91
2023-04-08T03:10:40.002Z,5.93
2023-04-08T03:11:39.999Z,5.94
2023-04-08T03:12:39.284Z,5.97
2023-04-08T03:13:39.968Z,5.99
2023-04-08T03:14:39.300Z,6.01
2023-04-08T03:15:39.947Z,6.05
2023-04-08T03:16:39.253Z,6.06
2023-04-08T03:17:39.254Z,6.08
2023-04-08T03:18:39.911Z,6.10
2023-04-08T03:19:39.231Z,6.13
2023-04-08T03:20:39.209Z,6.14
2023-04-08T03:21:39.880Z,6.16
2023-04-08T03:22:39.872Z,6.18
2023-04-08T03:23:39.860Z,6.18
2023-04-08T03:24:39.833Z,6.20
2023-04-08T03:25:39.156Z,6.21
2023-04-08T03:26:39.832Z,6.24
2023-04-08T03:27:39.821Z,6.24
2023-04-08T03:28:39.792Z,6.27
2023-04-08T03:29:39.796Z,6.28
2023-04-08T03:30:39.096Z,6.31
2023-04-08T03:31:39.138Z,6.32
2023-04-08T03:32:39.835Z,6.34
2023-04-08T03:33:39.753Z,6.35
2023-04-08T03:34:39.744Z,6.36
2023-04-08T03:35:39.769Z,6.38
2023-04-08T03:36:39.736Z,6.40
2023-04-08T03:37:39.030Z,6.41
2023-04-08T03:38:39.048Z,6.42
2023-04-08T03:39:39.703Z,6.45
2023-04-08T03:40:39.677Z,6.46
2023-04-08T03:41:39.674Z,6.47
2023-04-08T03:42:39.657Z,6.47
2023-04-08T03:43:39.628Z,6.49
2023-04-08T03:44:39.640Z,6.49
2023-04-08T03:45:39.660Z,6.50
2023-04-08T03:46:39.618Z,6.51
2023-04-08T03:47:39.615Z,6.52
2023-04-08T03:48:39.577Z,6.53
2023-04-08T03:49:38.905Z,6.55
2023-04-08T03:50:39.575Z,6.57
2023-04-08T03:51:38.892Z,6.59
2023-04-08T03:52:38.882Z,6.61
2023-04-08T03:53:38.867Z,6.62
2023-04-08T03:54:38.848Z,6.64
2023-04-08T03:55:39.520Z,6.66
2023-04-08T03:56:38.838Z,6.67
2023-04-08T03:57:38.810Z,6.69
2023-04-08T03:58:39.472Z,6.69
2023-04-08T03:59:38.798Z,6.70
2023-04-08T04:00:39.465Z,6.72
2023-04-08T04:01:41.715Z,6.72
2023-04-08T04:02:39.006Z,6.74
2023-04-08T04:03:39.479Z,6.75
2023-04-08T04:04:39.466Z,6.75
2023-04-08T04:05:38.738Z,6.77
2023-04-08T04:06:38.742Z,6.77
2023-04-08T04:07:39.397Z,6.77
2023-04-08T04:08:38.727Z,6.78
2023-04-08T04:09:39.380Z,6.77
2023-04-08T04:10:39.373Z,6.76
2023-04-08T04:11:39.359Z,6.76
2023-04-08T04:12:39.337Z,6.75
2023-04-08T04:13:38.672Z,6.76
2023-04-08T04:14:39.320Z,6.76
2023-04-08T04:15:39.388Z,6.76
2023-04-08T04:16:39.322Z,6.77
2023-04-08T04:17:38.622Z,6.78
2023-04-08T04:18:38.707Z,6.78
2023-04-08T04:19:39.273Z,6.79
2023-04-08T04:20:39.268Z,6.81
2023-04-08T04:21:38.564Z,6.82
2023-04-08T04:22:39.234Z,6.83
2023-04-08T04:23:39.215Z,6.84
2023-04-08T04:24:38.535Z,6.85
2023-04-08T04:25:39.212Z,6.87
2023-04-08T04:26:39.192Z,6.87
2023-04-08T04:27:38.495Z,6.89
2023-04-08T04:28:39.163Z,6.90
2023-04-08T04:29:38.485Z,6.90
2023-04-08T04:30:38.488Z,6.92
2023-04-08T04:31:39.182Z,6.91
2023-04-08T04:32:39.143Z,6.91
2023-04-08T04:33:38.457Z,6.92
2023-04-08T04:34:38.424Z,6.91
2023-04-08T04:35:38.454Z,6.91
2023-04-08T04:36:38.415Z,6.91
2023-04-08T04:37:38.390Z,6.89
2023-04-08T04:38:38.393Z,6.88
2023-04-08T04:39:39.059Z,6.87
2023-04-08T04:40:39.067Z,6.87
2023-04-08T04:41:38.360Z,6.86
2023-04-08T04:42:38.339Z,6.85
2023-04-08T04:43:39.001Z,6.85
2023-04-08T04:44:38.318Z,6.84
2023-04-08T04:45:38.989Z,6.85
2023-04-08T04:46:39.048Z,6.84
2023-04-08T04:47:38.306Z,6.85
2023-04-08T04:48:38.317Z,6.84
2023-04-08T04:49:38.951Z,6.83
2023-04-08T04:50:38.263Z,6.84
2023-04-08T04:51:38.253Z,6.84
2023-04-08T04:52:38.894Z,6.85
2023-04-08T04:53:38.917Z,6.85
2023-04-08T04:54:38.232Z,6.85
2023-04-08T04:55:39.385Z,6.85
2023-04-08T04:56:38.878Z,6.86
2023-04-08T04:57:38.840Z,6.87
2023-04-08T04:58:38.181Z,6.88
2023-04-08T04:59:38.165Z,6.88
2023-04-08T05:00:38.166Z,6.90
2023-04-08T05:01:38.239Z,6.90
2023-04-08T05:02:38.265Z,6.92
2023-04-08T05:03:38.888Z,6.93
2023-04-08T05:04:38.133Z,6.95
2023-04-08T05:05:38.107Z,6.95
2023-04-08T05:06:38.777Z,6.97
2023-04-08T05:07:38.088Z,6.99
2023-04-08T05:08:38.741Z,6.99
2023-04-08T05:09:38.750Z,7.01
2023-04-08T05:10:38.738Z,7.02
2023-04-08T05:11:38.730Z,7.04
2023-04-08T05:12:38.030Z,7.05
2023-04-08T05:13:38.707Z,7.06
2023-04-08T05:14:38.700Z,7.06
2023-04-08T05:15:38.687Z,7.07
2023-04-08T05:16:38.770Z,7.07
2023-04-08T05:17:38.038Z,7.09
2023-04-08T05:18:38.638Z,7.11
2023-04-08T05:19:38.647Z,7.13
2023-04-08T05:20:38.637Z,7.15
2023-04-08T05:21:38.628Z,7.18
2023-04-08T05:22:38.622Z,7.20
2023-04-08T05:23:37.948Z,7.23
2023-04-08T05:24:37.909Z,7.29
2023-04-08T05:25:38.588Z,7.38
2023-04-08T05:26:38.575Z,7.48
2023-04-08T05:27:38.567Z,7.59
2023-04-08T05:28:38.535Z,7.71
2023-04-08T05:29:37.861Z,7.84
2023-04-08T05:30:38.548Z,7.97
2023-04-08T05:31:38.586Z,8.06
2023-04-08T05:32:38.556Z,8.14
2023-04-08T05:33:38.496Z,8.22
2023-04-08T05:34:37.807Z,8.31
2023-04-08T05:35:37.877Z,8.47
2023-04-08T05:36:37.808Z,8.60
2023-04-08T05:37:38.476Z,8.72
2023-04-08T05:38:37.783Z,8.80
2023-04-08T05:39:38.497Z,8.91
2023-04-08T05:40:37.756Z,9.03
2023-04-08T05:41:38.416Z,9.08
2023-04-08T05:42:38.410Z,9.14
2023-04-08T05:43:37.722Z,9.19
2023-04-08T05:44:38.382Z,9.24
2023-04-08T05:45:38.376Z,9.31
2023-04-08T05:46:37.737Z,9.38
2023-04-08T05:47:37.839Z,9.46
2023-04-08T05:48:38.339Z,9.56
2023-04-08T05:49:37.649Z,9.67
2023-04-08T05:50:37.640Z,9.79
2023-04-08T05:51:38.315Z,9.92
2023-04-08T05:52:38.302Z,10.02
2023-04-08T05:53:37.624Z,10.08
2023-04-08T05:54:37.603Z,10.12
2023-04-08T05:55:38.267Z,10.13
2023-04-08T05:56:38.256Z,10.12
2023-04-08T05:57:38.522Z,10.08
2023-04-08T05:58:38.238Z,10.03
2023-04-08T05:59:37.547Z,9.96
2023-04-08T06:00:37.526Z,9.90
2023-04-08T06:01:37.596Z,9.83
2023-04-08T06:02:37.751Z,9.76
2023-04-08T06:03:37.567Z,9.69
2023-04-08T06:04:37.691Z,9.61
2023-04-08T06:05:37.599Z,9.54
2023-04-08T06:06:38.147Z,9.49
2023-04-08T06:07:38.423Z,9.45
2023-04-08T06:08:38.120Z,9.42
2023-04-08T06:09:37.474Z,9.41
2023-04-08T06:10:37.438Z,9.40
2023-04-08T06:11:38.901Z,9.39
2023-04-08T06:12:38.058Z,9.41
2023-04-08T06:13:38.327Z,9.41
2023-04-08T06:14:38.056Z,9.42
2023-04-08T06:15:37.371Z,9.44
2023-04-08T06:16:38.060Z,9.45
2023-04-08T06:17:37.425Z,9.46
2023-04-08T06:18:38.021Z,9.48
2023-04-08T06:19:38.001Z,9.50
2023-04-08T06:20:38.269Z,9.53
2023-04-08T06:21:38.241Z,9.58
2023-04-08T06:22:38.010Z,9.65
2023-04-08T06:23:37.958Z,9.73
2023-04-08T06:24:37.946Z,9.79
2023-04-08T06:25:37.936Z,9.86
2023-04-08T06:26:38.214Z,9.88
2023-04-08T06:27:37.903Z,9.90
2023-04-08T06:28:37.911Z,9.90
2023-04-08T06:29:37.890Z,9.91
2023-04-08T06:30:39.140Z,9.97
2023-04-08T06:31:37.977Z,10.03
2023-04-08T06:32:38.202Z,10.08
2023-04-08T06:33:37.852Z,10.12
2023-04-08T06:34:37.839Z,10.16
2023-04-08T06:35:37.178Z,10.17
2023-04-08T06:36:37.816Z,10.18
2023-04-08T06:37:37.797Z,10.18
2023-04-08T06:38:38.071Z,10.19
2023-04-08T06:39:37.110Z,10.21
2023-04-08T06:40:37.782Z,10.25
2023-04-08T06:41:37.761Z,10.28
2023-04-08T06:42:37.737Z,10.30
2023-04-08T06:43:37.985Z,10.33
2023-04-08T06:44:37.055Z,10.37
2023-04-08T06:45:37.133Z,10.43
2023-04-08T06:46:37.712Z,10.50
2023-04-08T06:47:39.001Z,10.57
2023-04-08T06:48:37.867Z,10.66
2023-04-08T06:49:37.697Z,10.77
2023-04-08T06:50:37.675Z,11.04
2023-04-08T06:51:37.914Z,11.71
2023-04-08T06:52:37.634Z,12.91
2023-04-08T06:53:37.876Z,13.74
2023-04-08T06:54:37.620Z,14.04
2023-04-08T06:55:37.610Z,14.09
2023-04-08T06:56:37.857Z,14.01
2023-04-08T06:57:37.578Z,13.87
2023-04-08T06:58:37.845Z,13.67
2023-04-08T06:59:36.880Z,13.48
2023-04-08T07:00:37.807Z,13.29
2023-04-08T07:01:37.897Z,13.07
2023-04-08T07:02:37.987Z,12.83
2023-04-08T07:03:37.651Z,12.60
2023-04-08T07:04:37.795Z,12.43
2023-04-08T07:05:37.505Z,12.24
2023-04-08T07:06:37.498Z,12.03
2023-04-08T07:07:37.487Z,11.85
2023-04-08T07:08:37.479Z,11.69
2023-04-08T07:09:37.461Z,11.53
2023-04-08T07:10:37.713Z,11.38
2023-04-08T07:11:38.729Z,11.24
2023-04-08T07:12:36.750Z,11.12
2023-04-08T07:13:36.732Z,11.00
2023-04-08T07:14:37.407Z,10.86
2023-04-08T07:15:36.745Z,10.76
2023-04-08T07:16:36.749Z,10.67
2023-04-08T07:17:37.425Z,10.62
2023-04-08T07:18:37.366Z,10.59
2023-04-08T07:19:36.674Z,10.56
2023-04-08T07:20:37.347Z,10.55
2023-04-08T07:21:38.622Z,10.56
2023-04-08T07:22:36.667Z,10.57
2023-04-08T07:23:37.330Z,10.59
2023-04-08T07:24:37.302Z,10.58
2023-04-08T07:25:36.620Z,10.55
2023-04-08T07:26:37.285Z,10.55
2023-04-08T07:27:37.253Z,10.57
2023-04-08T07:28:37.520Z,10.59
2023-04-08T07:29:37.508Z,10.62
2023-04-08T07:30:37.517Z,10.63
2023-04-08T07:31:37.228Z,10.65
2023-04-08T07:32:37.244Z,10.67
2023-04-08T07:33:37.203Z,10.67
2023-04-08T07:34:37.199Z,10.65
2023-04-08T07:35:38.468Z,10.62
2023-04-08T07:36:36.487Z,10.58
2023-04-08T07:37:36.516Z,10.54
2023-04-08T07:38:37.151Z,10.50
2023-04-08T07:39:37.141Z,10.46
2023-04-08T07:40:37.383Z,10.41
2023-04-08T07:41:37.360Z,10.38
2023-04-08T07:42:40.295Z,10.36
2023-04-08T07:43:37.622Z,10.32
2023-04-08T07:44:37.097Z,10.32
2023-04-08T07:45:37.078Z,10.33
2023-04-08T07:46:37.349Z,10.36
2023-04-08T07:47:37.326Z,10.38
2023-04-08T07:48:37.293Z,10.43
2023-04-08T07:49:37.288Z,10.51
2023-04-08T07:50:37.025Z,10.60
2023-04-08T07:51:37.336Z,10.69
2023-04-08T07:52:36.985Z,10.83
2023-04-08T07:53:37.008Z,11.02
2023-04-08T07:54:37.246Z,11.19
2023-04-08T07:55:36.975Z,11.39
2023-04-08T07:56:36.962Z,11.66
2023-04-08T07:57:37.030Z,11.96
2023-04-08T07:58:37.189Z,12.20
2023-04-08T07:59:38.198Z,12.46
2023-04-08T08:00:36.231Z,12.64
2023-04-08T08:01:38.273Z,12.82
2023-04-08T08:02:38.249Z,13.08
2023-04-08T08:03:38.272Z,13.54
2023-04-08T08:04:36.336Z,14.48
2023-04-08T08:05:37.171Z,15.58
2023-04-08T08:06:36.853Z,15.64
2023-04-08T08:07:36.850Z,16.10
2023-04-08T08:08:36.831Z,16.46
2023-04-08T08:09:36.149Z,16.28
2023-04-08T08:10:36.813Z,15.98
2023-04-08T08:11:36.115Z,15.64
2023-04-08T08:12:36.121Z,15.31
2023-04-08T08:13:38.020Z,15.07
2023-04-08T08:14:37.051Z,14.91
2023-04-08T08:15:36.090Z,14.74
2023-04-08T08:16:36.837Z,14.61
2023-04-08T08:17:36.092Z,14.59
2023-04-08T08:18:36.044Z,14.46
2023-04-08T08:19:36.038Z,14.35
2023-04-08T08:20:36.712Z,14.25
2023-04-08T08:21:37.964Z,14.11
2023-04-08T08:22:44.157Z,13.96
2023-04-08T08:23:37.997Z,13.80
2023-04-08T08:24:37.887Z,13.64
2023-04-08T08:25:36.653Z,13.52
2023-04-08T08:26:36.665Z,13.42
2023-04-08T08:27:35.980Z,13.31
2023-04-08T08:28:36.631Z,13.22
2023-04-08T08:29:35.927Z,13.19
2023-04-08T08:30:35.915Z,13.24
2023-04-08T08:31:36.897Z,13.45
2023-04-08T08:32:36.852Z,13.86
2023-04-08T08:33:36.584Z,14.45
2023-04-08T08:34:36.561Z,15.53
2023-04-08T08:35:36.835Z,15.85
2023-04-08T08:36:36.798Z,15.78
2023-04-08T08:37:35.840Z,15.66
2023-04-08T08:38:37.253Z,15.60
2023-04-08T08:39:36.511Z,15.66
2023-04-08T08:40:36.760Z,15.59
2023-04-08T08:41:35.799Z,15.38
2023-04-08T08:42:35.802Z,15.22
2023-04-08T08:43:36.462Z,15.06
2023-04-08T08:44:36.451Z,14.89
2023-04-08T08:45:36.440Z,14.67
2023-04-08T08:46:35.921Z,14.40
2023-04-08T08:47:36.437Z,14.11
2023-04-08T08:48:36.410Z,13.85
2023-04-08T08:49:36.412Z,13.62
2023-04-08T08:50:36.387Z,13.43
2023-04-08T08:51:35.696Z,13.28
2023-04-08T08:52:36.367Z,13.14
2023-04-08T08:53:36.356Z,13.03
2023-04-08T08:54:36.348Z,12.96
2023-04-08T08:56:00.313Z,12.90
2023-04-08T08:56:37.586Z,12.82
2023-04-08T08:57:36.303Z,12.78
2023-04-08T08:58:35.611Z,12.78
2023-04-08T08:59:35.616Z,12.79
2023-04-08T09:00:36.281Z,12.89
2023-04-08T09:01:36.438Z,13.10
2023-04-08T09:02:36.328Z,13.51
2023-04-08T09:03:36.512Z,13.56
2023-04-08T09:04:36.617Z,13.53
2023-04-08T09:05:36.328Z,13.61
2023-04-08T09:06:36.521Z,13.83
2023-04-08T09:07:36.207Z,14.15
2023-04-08T09:08:36.203Z,14.39
2023-04-08T09:09:36.194Z,14.56
2023-04-08T09:10:35.500Z,14.69
2023-04-08T09:11:36.162Z,14.71
2023-04-08T09:12:35.502Z,14.64
2023-04-08T09:13:36.152Z,14.56
2023-04-08T09:14:36.130Z,14.44
2023-04-08T09:15:36.125Z,14.32
2023-04-08T09:16:35.521Z,14.20
2023-04-08T09:17:35.455Z,14.08
2023-04-08T09:18:36.086Z,13.97
2023-04-08T09:19:35.392Z,13.87
2023-04-08T09:20:36.070Z,13.78
2023-04-08T09:21:35.368Z,13.65
2023-04-08T09:22:36.027Z,13.53
2023-04-08T09:23:35.364Z,13.39
2023-04-08T09:24:35.347Z,13.28
2023-04-08T09:25:35.345Z,13.22
2023-04-08T09:26:37.256Z,13.19
2023-04-08T09:27:35.996Z,13.20
2023-04-08T09:28:35.982Z,13.21
2023-04-08T09:29:39.126Z,13.22
2023-04-08T09:30:36.202Z,13.23
2023-04-08T09:31:35.321Z,13.25
2023-04-08T09:32:35.955Z,13.26
2023-04-08T09:33:35.928Z,13.29
2023-04-08T09:34:35.940Z,13.36
2023-04-08T09:35:35.928Z,13.44
2023-04-08T09:36:35.228Z,13.53
2023-04-08T09:37:35.871Z,13.64
2023-04-08T09:38:35.183Z,13.76
2023-04-08T09:39:35.876Z,13.87
2023-04-08T09:40:35.857Z,13.99
2023-04-08T09:41:35.843Z,14.11
2023-04-08T09:42:35.820Z,14.20
2023-04-08T09:43:35.820Z,14.27
2023-04-08T09:44:35.129Z,14.32
2023-04-08T09:45:35.134Z,14.31
2023-04-08T09:46:35.788Z,14.32
2023-04-08T09:47:35.124Z,14.32
2023-04-08T09:48:35.767Z,14.37
2023-04-08T09:49:35.076Z,14.44
2023-04-08T09:50:35.065Z,14.50
2023-04-08T09:51:35.092Z,14.52
2023-04-08T09:52:35.064Z,14.55
2023-04-08T09:53:35.723Z,14.59
2023-04-08T09:54:35.022Z,14.60
2023-04-08T09:55:35.691Z,14.63
2023-04-08T09:56:35.004Z,14.72
2023-04-08T09:57:35.663Z,14.80
2023-04-08T09:58:35.659Z,14.82
2023-04-08T09:59:35.650Z,14.92
2023-04-08T10:00:35.638Z,15.18
2023-04-08T10:01:35.736Z,15.43
2023-04-08T10:02:35.087Z,15.53
2023-04-08T10:03:34.993Z,15.53
2023-04-08T10:04:35.639Z,15.45
2023-04-08T10:05:35.586Z,15.33
2023-04-08T10:06:34.884Z,15.27
2023-04-08T10:07:35.539Z,15.24
2023-04-08T10:08:34.869Z,15.24
2023-04-08T10:09:34.856Z,15.26
2023-04-08T10:10:35.534Z,15.28
2023-04-08T10:11:34.848Z,15.32
2023-04-08T10:12:35.494Z,15.50
2023-04-08T10:13:35.520Z,15.63
2023-04-08T10:14:34.798Z,15.74
2023-04-08T10:15:34.794Z,15.85
2023-04-08T10:16:35.484Z,15.90
2023-04-08T10:17:35.489Z,15.88
2023-04-08T10:18:34.772Z,15.72
2023-04-08T10:19:35.442Z,15.56
2023-04-08T10:20:34.874Z,15.40
2023-04-08T10:21:35.418Z,15.37
2023-04-08T10:22:34.755Z,15.43
2023-04-08T10:23:35.391Z,15.54
2023-04-08T10:24:35.381Z,15.72
2023-04-08T10:25:35.394Z,15.89
2023-04-08T10:26:34.673Z,15.92
2023-04-08T10:27:35.332Z,15.86
2023-04-08T10:28:35.336Z,15.76
2023-04-08T10:29:35.338Z,15.64
2023-04-08T10:30:35.315Z,15.50
2023-04-08T10:31:36.639Z,15.36
2023-04-08T10:32:34.616Z,15.26
2023-04-08T10:33:47.388Z,15.19
2023-04-08T10:34:37.015Z,15.19
2023-04-08T10:35:35.291Z,15.27
2023-04-08T10:36:35.246Z,15.36
2023-04-08T10:37:35.239Z,15.44
2023-04-08T10:38:35.244Z,15.45
2023-04-08T10:39:36.902Z,15.39
2023-04-08T10:40:34.521Z,15.33
2023-04-08T10:41:34.539Z,15.23
2023-04-08T10:42:34.543Z,15.14
2023-04-08T10:43:34.559Z,15.08
2023-04-08T10:44:35.162Z,15.07
2023-04-08T10:45:35.154Z,15.09
2023-04-08T10:46:35.241Z,15.16
2023-04-08T10:47:34.536Z,15.18
2023-04-08T10:48:35.123Z,15.17
2023-04-08T10:49:34.436Z,15.15
2023-04-08T10:50:34.420Z,15.19
2023-04-08T10:51:35.101Z,15.30
2023-04-08T10:52:35.057Z,15.44
2023-04-08T10:53:35.069Z,15.55
2023-04-08T10:54:34.387Z,15.60
2023-04-08T10:55:34.364Z,15.66
2023-04-08T10:56:35.034Z,15.72
2023-04-08T10:57:35.016Z,15.78
2023-04-08T10:58:35.026Z,15.84
2023-04-08T10:59:35.002Z,15.87
2023-04-08T11:00:34.330Z,15.87
2023-04-08T11:01:34.403Z,15.89
2023-04-08T11:02:34.449Z,15.99
2023-04-08T11:03:34.441Z,16.05
2023-04-08T11:04:35.020Z,16.16
2023-04-08T11:05:34.938Z,16.23
2023-04-08T11:06:34.911Z,16.30
2023-04-08T11:07:34.240Z,16.32
2023-04-08T11:08:34.919Z,16.30
2023-04-08T11:09:34.900Z,16.25
2023-04-08T11:10:34.199Z,16.13
2023-04-08T11:11:34.190Z,16.02
2023-04-08T11:12:34.848Z,15.95
2023-04-08T11:13:34.182Z,15.91
2023-04-08T11:14:34.842Z,15.89
2023-04-08T11:15:34.163Z,15.91
2023-04-08T11:16:34.896Z,15.94
2023-04-08T11:17:34.154Z,15.96
2023-04-08T11:18:34.802Z,16.02
2023-04-08T11:19:34.112Z,16.16
2023-04-08T11:20:34.105Z,16.34
2023-04-08T11:21:34.084Z,16.45
2023-04-08T11:22:34.747Z,16.42
2023-04-08T11:23:34.753Z,16.34
2023-04-08T11:24:34.057Z,16.27
2023-04-08T11:25:34.049Z,16.22
2023-04-08T11:26:34.726Z,16.22
2023-04-08T11:27:34.688Z,16.30
2023-04-08T11:28:34.020Z,16.43
2023-04-08T11:29:34.029Z,16.54
2023-04-08T11:30:34.679Z,16.68
2023-04-08T11:31:34.051Z,16.83
2023-04-08T11:32:33.996Z,16.93
2023-04-08T11:33:33.959Z,17.00
2023-04-08T11:34:34.638Z,17.04
2023-04-08T11:35:33.996Z,17.04
2023-04-08T11:36:34.595Z,17.03
2023-04-08T11:37:34.600Z,17.03
2023-04-08T11:38:33.910Z,17.06
2023-04-08T11:39:34.580Z,17.13
2023-04-08T11:40:33.890Z,17.20
2023-04-08T11:41:34.554Z,17.26
2023-04-08T11:42:34.524Z,17.32
2023-04-08T11:43:34.529Z,17.39
2023-04-08T11:44:34.530Z,17.40
2023-04-08T11:45:34.510Z,17.42
2023-04-08T11:46:34.515Z,17.49
2023-04-08T11:47:34.505Z,17.53
2023-04-08T11:48:34.480Z,17.50
2023-04-08T11:49:34.469Z,17.37
2023-04-08T11:50:34.454Z,17.25
2023-04-08T11:51:34.446Z,17.13
2023-04-08T11:52:33.779Z,17.11
2023-04-08T11:53:34.430Z,17.12
2023-04-08T11:54:34.411Z,17.15
2023-04-08T11:55:33.723Z,17.21
2023-04-08T11:56:33.726Z,17.29
2023-04-08T11:57:33.710Z,17.34
2023-04-08T11:58:33.688Z,17.39
2023-04-08T11:59:33.678Z,17.42
2023-04-08T12:00:34.350Z,17.38
2023-04-08T12:01:34.361Z,17.30
2023-04-08T12:02:33.742Z,17.23
2023-04-08T12:03:34.428Z,17.17
2023-04-08T12:04:34.430Z,17.14
2023-04-08T12:05:33.601Z,17.10
2023-04-08T12:06:34.282Z,17.03
2023-04-08T12:07:34.265Z,16.97
2023-04-08T12:08:33.577Z,16.86
2023-04-08T12:09:33.573Z,16.77
2023-04-08T12:10:34.245Z,16.64
2023-04-08T12:11:33.543Z,16.55
2023-04-08T12:12:33.564Z,16.47
2023-04-08T12:13:33.539Z,16.38
2023-04-08T12:14:33.513Z,16.32
2023-04-08T12:15:34.191Z,16.31
2023-04-08T12:16:34.241Z,16.32
2023-04-08T12:17:34.191Z,16.33
2023-04-08T12:18:33.472Z,16.31
2023-04-08T12:19:34.465Z,16.32
2023-04-08T12:20:33.443Z,16.35
2023-04-08T12:21:34.099Z,16.38
2023-04-08T12:22:33.415Z,16.38
2023-04-08T12:23:33.416Z,16.36
2023-04-08T12:24:34.089Z,16.37
2023-04-08T12:25:33.375Z,16.38
2023-04-08T12:26:33.400Z,16.41
2023-04-08T12:27:33.467Z,16.45
2023-04-08T12:28:33.430Z,16.48
2023-04-08T12:29:34.030Z,16.49
2023-04-08T12:30:33.328Z,16.47
2023-04-08T12:31:33.368Z,16.44
2023-04-08T12:32:34.071Z,16.42
2023-04-08T12:33:33.313Z,16.48
2023-04-08T12:34:33.310Z,16.56
2023-04-08T12:35:33.994Z,16.62
2023-04-08T12:36:33.966Z,16.71
2023-04-08T12:37:33.938Z,16.80
2023-04-08T12:38:33.942Z,16.89
2023-04-08T12:39:33.250Z,16.96
2023-04-08T12:40:33.916Z,17.02
2023-04-08T12:41:33.223Z,17.06
2023-04-08T12:42:33.880Z,17.05
2023-04-08T12:43:33.881Z,17.02
2023-04-08T12:44:33.187Z,17.02
2023-04-08T12:45:33.172Z,17.02
2023-04-08T12:46:33.892Z,17.00
2023-04-08T12:47:33.881Z,16.99
2023-04-08T12:48:33.163Z,16.97
2023-04-08T12:49:39.590Z,16.88
2023-04-08T12:50:34.806Z,16.81
2023-04-08T12:51:33.123Z,16.79
2023-04-08T12:52:33.126Z,16.77
2023-04-08T12:53:33.774Z,16.75
2023-04-08T12:54:33.114Z,16.75
2023-04-08T12:55:33.094Z,16.73
2023-04-08T12:56:33.765Z,16.72
2023-04-08T12:57:33.719Z,16.73
2023-04-08T12:58:33.069Z,16.70
2023-04-08T12:59:33.710Z,16.67
2023-04-08T13:00:33.770Z,16.62
2023-04-08T13:01:33.175Z,16.55
2023-04-08T13:02:33.713Z,16.47
2023-04-08T13:03:33.044Z,16.44
2023-04-08T13:04:32.974Z,16.44
2023-04-08T13:05:43.175Z,16.46